createdAt,value
2023-02-01T00:01:34.294Z,2.45
2023-02-01T00:04:11.298Z,2.47
2023-02-01T00:06:47.858Z,2.48
2023-02-01T00:09:24.644Z,2.51
2023-02-01T00:12:03.091Z,2.52
2023-02-01T00:14:41.116Z,2.54
2023-02-01T00:17:17.907Z,2.54
2023-02-01T00:19:54.324Z,2.54
2023-02-01T00:22:30.954Z,2.55
2023-02-01T00:25:09.165Z,2.55
2023-02-01T00:27:45.722Z,2.56
2023-02-01T00:30:23.863Z,2.57
2023-02-01T00:33:00.390Z,2.55
2023-02-01T00:35:37.687Z,2.55
2023-02-01T00:38:14.052Z,2.56
2023-02-01T00:40:50.447Z,2.58
2023-02-01T00:43:27.501Z,2.59
2023-02-01T00:46:04.452Z,2.59
2023-02-01T00:48:41.639Z,2.60
2023-02-01T00:51:22.972Z,2.61
2023-02-01T00:53:59.525Z,2.63
2023-02-01T00:56:36.133Z,2.64
2023-02-01T00:59:14.735Z,2.66
2023-02-01T01:01:51.207Z,2.68
2023-02-01T01:04:27.645Z,2.70
2023-02-01T01:07:04.281Z,2.70
2023-02-01T01:09:40.771Z,2.68
2023-02-01T01:12:17.211Z,2.65
2023-02-01T01:14:53.628Z,2.64
2023-02-01T01:17:29.915Z,2.64
2023-02-01T01:20:07.031Z,2.65
2023-02-01T01:22:43.333Z,2.69
2023-02-01T01:25:20.135Z,2.71
2023-02-01T01:27:57.172Z,2.72
2023-02-01T01:30:33.707Z,2.73
2023-02-01T01:33:10.325Z,2.71
2023-02-01T01:35:47.509Z,2.69
2023-02-01T01:38:24.080Z,2.68
2023-02-01T01:41:00.688Z,2.67
2023-02-01T01:43:57.656Z,2.64
2023-02-01T01:46:41.646Z,2.60
2023-02-01T01:49:23.060Z,2.61
2023-02-01T01:52:05.567Z,2.59
2023-02-01T01:54:48.222Z,2.55
2023-02-01T01:57:40.506Z,2.53
2023-02-01T02:00:23.651Z,2.49
2023-02-01T02:03:08.131Z,2.44
2023-02-01T02:05:48.697Z,2.37
2023-02-01T02:08:27.368Z,2.30
2023-02-01T02:11:04.449Z,2.23
2023-02-01T02:13:47.344Z,2.18
2023-02-01T02:17:05.931Z,2.16
2023-02-01T02:20:52.701Z,2.13
2023-02-01T02:24:27.911Z,2.16
2023-02-01T02:27:31.943Z,2.20
2023-02-01T02:30:59.584Z,2.23
2023-02-01T02:34:03.790Z,2.30
2023-02-01T02:36:58.319Z,2.35
2023-02-01T02:39:51.576Z,2.36
2023-02-01T02:42:59.385Z,2.40
2023-02-01T02:46:05.128Z,2.43
2023-02-01T02:48:53.936Z,2.46
2023-02-01T02:51:56.200Z,2.45
2023-02-01T02:54:52.983Z,2.46
2023-02-01T02:57:52.631Z,2.44
2023-02-01T03:00:53.864Z,2.42
2023-02-01T03:03:48.344Z,2.40
2023-02-01T03:06:26.916Z,2.38
2023-02-01T03:09:10.920Z,2.37
2023-02-01T03:12:09.712Z,2.37
2023-02-01T03:14:53.029Z,2.37
2023-02-01T03:17:40.906Z,2.37
2023-02-01T03:20:22.200Z,2.38
2023-02-01T03:22:59.822Z,2.37
2023-02-01T03:25:38.396Z,2.37
2023-02-01T03:28:17.523Z,2.36
2023-02-01T03:30:54.827Z,2.34
2023-02-01T03:33:34.654Z,2.33
2023-02-01T03:36:32.501Z,2.32
2023-02-01T03:39:17.812Z,2.36
2023-02-01T03:41:58.988Z,2.41
2023-02-01T03:44:41.188Z,2.42
2023-02-01T03:47:23.479Z,2.40
2023-02-01T03:50:07.479Z,2.38
2023-02-01T03:52:51.058Z,2.35
2023-02-01T03:55:30.476Z,2.34
2023-02-01T03:58:13.887Z,2.34
2023-02-01T04:00:58.374Z,2.33
2023-02-01T04:03:35.384Z,2.34
2023-02-01T04:06:12.620Z,2.33
2023-02-01T04:08:49.208Z,2.33
2023-02-01T04:11:26.089Z,2.34
2023-02-01T04:14:05.527Z,2.37
2023-02-01T04:16:42.149Z,2.40
2023-02-01T04:19:18.570Z,2.42
2023-02-01T04:21:55.152Z,2.44
2023-02-01T04:24:31.580Z,2.45
2023-02-01T04:27:08.144Z,2.46
2023-02-01T04:29:46.212Z,2.48
2023-02-01T04:32:23.091Z,2.48
2023-02-01T04:34:59.547Z,2.50
2023-02-01T04:37:36.495Z,2.51
2023-02-01T04:40:16.303Z,2.50
2023-02-01T04:42:52.635Z,2.51
2023-02-01T04:45:29.009Z,2.51
2023-02-01T04:48:05.978Z,2.50
2023-02-01T04:50:42.246Z,2.49
2023-02-01T04:53:19.110Z,2.50
2023-02-01T04:55:55.426Z,2.50
2023-02-01T04:58:31.865Z,2.48
2023-02-01T05:01:10.163Z,2.48
2023-02-01T05:03:47.496Z,2.47
2023-02-01T05:06:24.351Z,2.47
2023-02-01T05:09:00.638Z,2.49
2023-02-01T05:11:54.735Z,2.49
2023-02-01T05:14:31.410Z,2.52
2023-02-01T05:17:07.947Z,2.52
2023-02-01T05:19:44.345Z,2.52
2023-02-01T05:22:20.598Z,2.54
2023-02-01T05:24:56.884Z,2.53
2023-02-01T05:27:34.532Z,2.56
2023-02-01T05:30:14.382Z,2.57
2023-02-01T05:32:53.429Z,2.59
2023-02-01T05:35:29.707Z,2.58
2023-02-01T05:38:06.071Z,2.59
2023-02-01T05:40:42.542Z,2.58
2023-02-01T05:43:18.922Z,2.59
2023-02-01T05:45:57.064Z,2.57
2023-02-01T05:48:33.895Z,2.58
2023-02-01T05:51:11.029Z,2.57
2023-02-01T05:53:47.551Z,2.57
2023-02-01T05:56:23.916Z,2.56
2023-02-01T06:01:37.074Z,2.53
2023-02-01T06:04:13.668Z,2.52
2023-02-01T06:06:51.829Z,2.51
2023-02-01T06:09:29.337Z,2.50
2023-02-01T06:12:06.423Z,2.50
2023-02-01T06:14:44.438Z,2.47
2023-02-01T06:17:21.817Z,2.46
2023-02-01T06:19:58.193Z,2.43
2023-02-01T06:22:34.729Z,2.39
2023-02-01T06:25:14.123Z,2.38
2023-02-01T06:27:50.649Z,2.36
2023-02-01T06:30:27.921Z,2.36
2023-02-01T06:33:04.845Z,2.36
2023-02-01T06:35:42.614Z,2.36
2023-02-01T06:38:19.990Z,2.37
2023-02-01T06:41:01.609Z,2.39
2023-02-01T06:43:38.667Z,2.41
2023-02-01T06:46:17.071Z,2.44
2023-02-01T06:48:53.438Z,2.46
2023-02-01T06:51:31.850Z,2.50
2023-02-01T06:54:08.317Z,2.56
2023-02-01T06:56:44.659Z,2.60
2023-02-01T06:59:21.055Z,2.66
2023-02-01T07:01:57.362Z,2.69
2023-02-01T07:04:33.939Z,2.75
2023-02-01T07:07:10.123Z,2.78
2023-02-01T07:09:46.398Z,2.83
2023-02-01T07:12:24.523Z,2.89
2023-02-01T07:15:02.835Z,2.95
2023-02-01T07:17:39.193Z,2.99
2023-02-01T07:20:17.920Z,3.03
2023-02-01T07:22:58.736Z,3.07
2023-02-01T07:25:36.572Z,3.13
2023-02-01T07:28:12.844Z,3.17
2023-02-01T07:30:52.109Z,3.19
2023-02-01T07:33:29.461Z,3.18
2023-02-01T07:36:19.181Z,3.20
2023-02-01T07:38:56.780Z,3.22
2023-02-01T07:41:33.809Z,3.24
2023-02-01T07:44:10.322Z,3.25
2023-02-01T07:46:46.619Z,3.26
2023-02-01T07:49:23.019Z,3.28
2023-02-01T07:51:59.263Z,3.28
2023-02-01T07:54:35.442Z,3.29
2023-02-01T07:57:13.164Z,3.31
2023-02-01T08:00:06.955Z,3.31
2023-02-01T08:02:48.809Z,3.33
2023-02-01T08:05:25.152Z,3.37
2023-02-01T08:08:02.022Z,3.40
2023-02-01T08:10:38.214Z,3.44
2023-02-01T08:13:14.556Z,3.46
2023-02-01T08:15:51.075Z,3.49
2023-02-01T08:18:27.736Z,3.51
2023-02-01T08:21:10.553Z,3.52
2023-02-01T08:23:47.984Z,3.54
2023-02-01T08:26:27.869Z,3.57
2023-02-01T08:29:08.386Z,3.61
2023-02-01T08:31:44.944Z,3.65
2023-02-01T08:34:21.597Z,3.70
2023-02-01T08:37:02.523Z,3.78
2023-02-01T08:39:38.991Z,3.86
2023-02-01T08:42:32.868Z,3.92
2023-02-01T08:45:11.841Z,3.97
2023-02-01T08:47:49.115Z,4.00
2023-02-01T08:50:27.894Z,4.01
2023-02-01T08:53:04.260Z,4.00
2023-02-01T08:55:40.626Z,3.99
2023-02-01T08:58:18.145Z,3.98
2023-02-01T09:00:54.780Z,4.01
2023-02-01T09:03:31.169Z,4.04
2023-02-01T09:06:14.365Z,4.05
2023-02-01T09:08:50.754Z,4.08
2023-02-01T09:11:27.765Z,4.12
2023-02-01T09:14:04.430Z,4.19
2023-02-01T09:16:40.864Z,4.27
2023-02-01T09:19:26.945Z,4.36
2023-02-01T09:22:03.804Z,4.47
2023-02-01T09:24:40.194Z,4.57
2023-02-01T09:27:16.870Z,4.67
2023-02-01T09:29:54.349Z,4.77
2023-02-01T09:32:30.955Z,4.83
2023-02-01T09:35:08.531Z,4.94
2023-02-01T09:37:44.920Z,5.05
2023-02-01T09:40:24.025Z,5.16
2023-02-01T09:43:27.685Z,5.26
2023-02-01T09:46:24.102Z,5.34
2023-02-01T09:49:05.981Z,5.35
2023-02-01T09:51:44.952Z,5.33
2023-02-01T09:54:25.073Z,5.33
2023-02-01T09:57:10.500Z,5.32
2023-02-01T09:59:53.465Z,5.34
2023-02-01T10:02:32.958Z,5.42
2023-02-01T10:05:18.780Z,5.50
2023-02-01T10:08:12.872Z,5.53
2023-02-01T10:10:53.863Z,5.61
2023-02-01T10:13:57.188Z,5.70
2023-02-01T10:16:50.946Z,5.76
2023-02-01T10:19:49.044Z,5.67
2023-02-01T10:23:03.609Z,5.61
2023-02-01T10:25:48.621Z,5.54
2023-02-01T10:28:27.079Z,5.47
2023-02-01T10:31:05.533Z,5.43
2023-02-01T10:33:49.175Z,5.39
2023-02-01T10:36:36.090Z,5.38
2023-02-01T10:39:18.247Z,5.33
2023-02-01T10:41:57.196Z,5.25
2023-02-01T10:44:46.615Z,5.18
2023-02-01T10:47:23.243Z,5.14
2023-02-01T10:50:21.814Z,5.15
2023-02-01T10:53:07.701Z,5.07
2023-02-01T10:55:54.035Z,5.00
2023-02-01T10:58:38.813Z,5.00
2023-02-01T11:01:22.187Z,5.02
2023-02-01T11:04:04.375Z,5.03
2023-02-01T11:06:44.218Z,5.06
2023-02-01T11:09:27.005Z,5.11
2023-02-01T11:12:05.813Z,5.16
2023-02-01T11:14:45.288Z,5.16
2023-02-01T11:17:44.954Z,5.14
2023-02-01T11:20:41.979Z,5.15
2023-02-01T11:23:25.701Z,5.16
2023-02-01T11:26:12.519Z,5.17
2023-02-01T11:28:59.051Z,5.23
2023-02-01T11:31:37.563Z,5.25
2023-02-01T11:34:22.394Z,5.25
2023-02-01T11:37:05.495Z,5.22
2023-02-01T11:39:41.984Z,5.19
2023-02-01T11:42:22.007Z,5.16
2023-02-01T11:45:29.782Z,5.14
2023-02-01T11:48:26.377Z,5.14
2023-02-01T11:51:44.649Z,5.19
2023-02-01T11:54:49.766Z,5.19
2023-02-01T11:57:54.684Z,5.18
2023-02-01T12:01:05.161Z,5.15
2023-02-01T12:04:31.761Z,5.11
2023-02-01T12:07:18.891Z,5.07
2023-02-01T12:10:21.858Z,5.03
2023-02-01T12:13:16.676Z,4.98
2023-02-01T12:16:12.356Z,4.96
2023-02-01T12:19:34.735Z,4.90
2023-02-01T12:22:43.628Z,4.90
2023-02-01T12:25:49.235Z,4.96
2023-02-01T12:29:15.140Z,4.97
2023-02-01T12:32:11.627Z,4.99
2023-02-01T12:35:22.552Z,4.99
2023-02-01T12:38:26.853Z,4.96
2023-02-01T12:41:31.815Z,4.95
2023-02-01T12:44:19.313Z,4.99
2023-02-01T12:47:05.380Z,5.00
2023-02-01T12:49:56.011Z,4.97
2023-02-01T12:52:44.920Z,4.95
2023-02-01T12:55:35.076Z,4.94
2023-02-01T12:58:21.242Z,4.93
2023-02-01T13:01:05.994Z,4.92
2023-02-01T13:03:52.749Z,4.88
2023-02-01T13:06:36.009Z,4.85
2023-02-01T13:09:25.459Z,4.82
2023-02-01T13:12:13.706Z,4.78
2023-02-01T13:14:58.739Z,4.73
2023-02-01T13:17:38.773Z,4.70
2023-02-01T13:20:30.633Z,4.68
2023-02-01T13:23:12.524Z,4.66
2023-02-01T13:25:54.190Z,4.63
2023-02-01T13:28:43.115Z,4.64
2023-02-01T13:32:06.586Z,4.66
2023-02-01T13:35:38.772Z,4.67
2023-02-01T13:38:57.188Z,4.69
2023-02-01T13:41:41.775Z,4.69
2023-02-01T13:44:29.833Z,4.71
2023-02-01T13:47:20.771Z,4.72
2023-02-01T13:50:00.552Z,4.71
2023-02-01T13:52:45.868Z,4.72
2023-02-01T13:55:43.255Z,4.74
2023-02-01T13:58:39.317Z,4.71
2023-02-01T14:01:51.491Z,4.65
2023-02-01T14:04:54.543Z,4.60
2023-02-01T14:07:32.939Z,4.53
2023-02-01T14:10:56.911Z,4.52
2023-02-01T14:13:37.862Z,4.50
2023-02-01T14:16:22.221Z,4.50
2023-02-01T14:19:20.608Z,4.48
2023-02-01T14:22:01.537Z,4.47
2023-02-01T14:24:40.666Z,4.47
2023-02-01T14:27:28.124Z,4.45
2023-02-01T14:30:17.809Z,4.46
2023-02-01T14:32:54.167Z,4.46
2023-02-01T14:35:32.734Z,4.45
2023-02-01T14:38:12.415Z,4.44
2023-02-01T14:40:49.094Z,4.44
2023-02-01T14:44:14.911Z,4.46
2023-02-01T14:47:28.450Z,4.45
2023-02-01T14:50:41.393Z,4.41
2023-02-01T14:53:37.274Z,4.32
2023-02-01T14:56:23.022Z,4.26
2023-02-01T14:59:11.927Z,4.19
2023-02-01T15:01:59.728Z,4.14
2023-02-01T15:04:46.916Z,4.06
2023-02-01T15:07:26.429Z,4.02
2023-02-01T15:10:05.044Z,3.99
2023-02-01T15:12:49.598Z,3.97
2023-02-01T15:15:28.421Z,3.93
2023-02-01T15:18:05.601Z,3.89
2023-02-01T15:21:06.830Z,3.82
2023-02-01T15:23:38.979Z,3.70
2023-02-01T15:26:28.376Z,3.60
2023-02-01T15:29:05.423Z,3.50
2023-02-01T15:31:46.753Z,3.44
2023-02-01T15:34:24.533Z,3.37
2023-02-01T15:37:16.685Z,3.31
2023-02-01T15:40:26.883Z,3.25
2023-02-01T15:43:04.643Z,3.20
2023-02-01T15:45:43.209Z,3.12
2023-02-01T15:48:27.749Z,3.07
2023-02-01T15:51:06.452Z,3.02
2023-02-01T15:53:49.583Z,2.99
2023-02-01T15:56:35.536Z,2.96
2023-02-01T15:59:31.838Z,2.94
2023-02-01T16:02:22.086Z,2.92
2023-02-01T16:04:58.759Z,2.89
2023-02-01T16:07:37.363Z,2.89
2023-02-01T16:10:31.049Z,2.88
2023-02-01T16:13:07.399Z,2.86
2023-02-01T16:15:44.015Z,2.84
2023-02-01T16:18:20.903Z,2.82
2023-02-01T16:20:57.428Z,2.82
2023-02-01T16:23:33.723Z,2.81
2023-02-01T16:26:11.302Z,2.82
2023-02-01T16:28:47.944Z,2.82
2023-02-01T16:31:32.774Z,2.81
2023-02-01T16:34:13.133Z,2.82
2023-02-01T16:36:53.262Z,2.81
2023-02-01T16:39:31.039Z,2.81
2023-02-01T16:42:15.669Z,2.80
2023-02-01T16:44:52.141Z,2.79
2023-02-01T16:47:28.883Z,2.79
2023-02-01T16:50:17.510Z,2.82
2023-02-01T16:52:59.279Z,2.84
2023-02-01T16:55:36.029Z,2.84
2023-02-01T16:58:12.596Z,2.87
2023-02-01T17:00:50.465Z,2.90
2023-02-01T17:03:27.949Z,2.92
2023-02-01T17:06:04.591Z,2.94
2023-02-01T17:08:46.372Z,2.95
2023-02-01T17:11:24.147Z,2.95
2023-02-01T17:14:12.185Z,2.95
2023-02-01T17:16:51.497Z,2.95
2023-02-01T17:19:29.311Z,2.94
2023-02-01T17:22:05.778Z,2.93
2023-02-01T17:24:48.594Z,2.90
2023-02-01T17:27:25.511Z,2.87
2023-02-01T17:30:04.396Z,2.86
2023-02-01T17:32:42.305Z,2.85
2023-02-01T17:35:27.330Z,2.84
2023-02-01T17:38:04.090Z,2.82
2023-02-01T17:40:40.498Z,2.85
2023-02-01T17:43:24.071Z,2.88
2023-02-01T17:46:06.009Z,2.89
2023-02-01T17:48:43.136Z,2.92
2023-02-01T17:51:24.807Z,2.95
2023-02-01T17:54:01.367Z,2.97
2023-02-01T17:56:37.984Z,2.97
2023-02-01T17:59:15.387Z,2.98
2023-02-01T18:01:52.310Z,2.98
2023-02-01T18:04:29.393Z,2.94
2023-02-01T18:07:05.892Z,2.86
2023-02-01T18:09:42.628Z,2.73
2023-02-01T18:12:26.827Z,2.62
2023-02-01T18:15:03.460Z,2.54
2023-02-01T18:17:40.229Z,2.47
2023-02-01T18:20:24.521Z,2.41
2023-02-01T18:23:01.965Z,2.36
2023-02-01T18:25:38.822Z,2.34
2023-02-01T18:28:16.818Z,2.33
2023-02-01T18:30:54.573Z,2.34
2023-02-01T18:33:31.313Z,2.36
2023-02-01T18:36:11.053Z,2.38
2023-02-01T18:38:47.642Z,2.42
2023-02-01T18:41:25.738Z,2.45
2023-02-01T18:44:02.274Z,2.50
2023-02-01T18:46:38.810Z,2.54
2023-02-01T18:49:18.176Z,2.58
2023-02-01T18:51:54.423Z,2.62
2023-02-01T18:54:30.898Z,2.68
2023-02-01T18:57:07.551Z,2.73
2023-02-01T18:59:43.977Z,2.78
2023-02-01T19:02:20.424Z,2.81
2023-02-01T19:04:58.009Z,2.85
2023-02-01T19:07:37.981Z,2.87
2023-02-01T19:10:22.984Z,2.88
2023-02-01T19:12:59.728Z,2.89
2023-02-01T19:15:40.702Z,2.89
2023-02-01T19:18:20.402Z,2.90
2023-02-01T19:21:03.445Z,2.89
2023-02-01T19:23:41.589Z,2.88
2023-02-01T19:26:19.723Z,2.87
2023-02-01T19:28:58.827Z,2.86
2023-02-01T19:31:35.261Z,2.85
2023-02-01T19:34:12.158Z,2.84
2023-02-01T19:36:49.641Z,2.85
2023-02-01T19:39:26.139Z,2.87
2023-02-01T19:42:04.275Z,2.87
2023-02-01T19:44:41.259Z,2.86
2023-02-01T19:47:17.779Z,2.87
2023-02-01T19:49:56.281Z,2.87
2023-02-01T19:52:36.226Z,2.88
2023-02-01T19:55:14.293Z,2.89
2023-02-01T19:57:50.550Z,2.90
2023-02-01T20:00:26.585Z,2.91
2023-02-01T20:03:03.723Z,2.92
2023-02-01T20:05:40.471Z,2.90
2023-02-01T20:08:16.834Z,2.88
2023-02-01T20:10:53.516Z,2.88
2023-02-01T20:13:29.981Z,2.89
2023-02-01T20:16:07.504Z,2.88
2023-02-01T20:18:44.351Z,2.88
2023-02-01T20:21:23.714Z,2.87
2023-02-01T20:24:00.314Z,2.87
2023-02-01T20:26:39.520Z,2.85
2023-02-01T20:29:17.530Z,2.86
2023-02-01T20:31:53.989Z,2.85
2023-02-01T20:34:30.939Z,2.84
2023-02-01T20:37:07.539Z,2.84
2023-02-01T20:39:44.145Z,2.81
2023-02-01T20:42:20.515Z,2.78
2023-02-01T20:44:57.272Z,2.75
2023-02-01T20:47:33.962Z,2.71
2023-02-01T20:50:14.972Z,2.64
2023-02-01T20:52:51.435Z,2.57
2023-02-01T20:55:27.980Z,2.53
2023-02-01T20:58:04.454Z,2.53
2023-02-01T21:00:41.140Z,2.52
2023-02-01T21:03:18.395Z,2.49
2023-02-01T21:05:59.021Z,2.48
2023-02-01T21:08:36.407Z,2.46
2023-02-01T21:11:15.975Z,2.44
2023-02-01T21:13:52.380Z,2.44
2023-02-01T21:16:29.027Z,2.42
2023-02-01T21:19:05.338Z,2.42
2023-02-01T21:21:42.701Z,2.42
2023-02-01T21:24:19.171Z,2.41
2023-02-01T21:26:55.903Z,2.42
2023-02-01T21:29:32.580Z,2.45
2023-02-01T21:32:10.646Z,2.50
2023-02-01T21:34:47.029Z,2.54
2023-02-01T21:37:25.725Z,2.59
2023-02-01T21:40:02.396Z,2.63
2023-02-01T21:42:40.693Z,2.67
2023-02-01T21:45:19.083Z,2.67
2023-02-01T21:47:57.020Z,2.67
2023-02-01T21:50:35.444Z,2.70
2023-02-01T21:53:11.836Z,2.74
2023-02-01T21:55:48.255Z,2.79
2023-02-01T21:58:24.720Z,2.85
2023-02-01T22:01:01.168Z,2.92
2023-02-01T22:03:37.872Z,2.97
2023-02-01T22:06:25.176Z,3.02
2023-02-01T22:09:02.159Z,3.07
2023-02-01T22:11:38.530Z,3.11
2023-02-01T22:14:16.906Z,3.14
2023-02-01T22:16:53.318Z,3.17
2023-02-01T22:19:29.868Z,3.17
2023-02-01T22:22:06.399Z,3.15
2023-02-01T22:24:42.623Z,3.13
2023-02-01T22:27:18.971Z,3.10
2023-02-01T22:29:55.228Z,3.07
2023-02-01T22:32:32.173Z,3.04
2023-02-01T22:35:10.938Z,3.02
2023-02-01T22:37:47.292Z,3.00
2023-02-01T22:40:24.840Z,2.98
2023-02-01T22:43:01.257Z,2.96
2023-02-01T22:45:39.053Z,2.95
2023-02-01T22:48:15.308Z,2.92
2023-02-01T22:50:51.686Z,2.91
2023-02-01T22:53:28.580Z,2.88
2023-02-01T22:56:08.846Z,2.88
2023-02-01T22:58:45.693Z,2.86
2023-02-01T23:01:21.967Z,2.87
2023-02-01T23:04:04.251Z,2.87
2023-02-01T23:06:40.505Z,2.88
2023-02-01T23:09:25.816Z,2.88
2023-02-01T23:12:02.337Z,2.88
2023-02-01T23:14:59.568Z,2.89
2023-02-01T23:17:37.071Z,2.91
2023-02-01T23:20:18.251Z,2.90
2023-02-01T23:22:54.911Z,2.90
2023-02-01T23:25:31.278Z,2.90
2023-02-01T23:28:08.272Z,2.90
2023-02-01T23:30:44.573Z,2.89
2023-02-01T23:33:22.816Z,2.88
2023-02-01T23:36:05.965Z,2.88
2023-02-01T23:38:42.466Z,2.89
2023-02-01T23:41:21.095Z,2.90
2023-02-01T23:44:00.675Z,2.90
2023-02-01T23:46:41.535Z,2.91
2023-02-01T23:49:19.865Z,2.92
2023-02-01T23:51:56.387Z,2.94
2023-02-01T23:54:33.323Z,2.96
2023-02-01T23:57:10.599Z,2.97
2023-02-01T23:59:48.754Z,2.99
